Time;durP1;ratioP1;P1;durP2;ratioP2;P2;SDS_P1;SDS_P2;PMS_P1;PMS_P2;Temp;Humidity;BMP_temperature;BMP_pressure;BME280_temperature;BME280_humidity;BME280_pressure;Samples;Min_cycle;Max_cycle;Signal;HPM_P1;HPM_P2
2023/05/09 00:00:41;;;;;;;16.20;13.50;;;;;;;;;;5063230;28;20438;-44
2023/05/09 00:03:07;;;;;;;17.17;14.33;;;;;;;;;;5060614;28;20384;-44
2023/05/09 00:05:33;;;;;;;21.23;14.30;;;;;;;;;;5061335;28;20902;-43
2023/05/09 00:07:59;;;;;;;17.37;13.47;;;;;;;;;;5061111;28;20415;-44
2023/05/09 00:10:26;;;;;;;20.10;15.00;;;;;;;;;;5060824;28;20421;-44
2023/05/09 00:12:52;;;;;;;20.90;14.70;;;;;;;;;;5060407;28;20395;-47
2023/05/09 00:15:18;;;;;;;18.87;14.43;;;;;;;;;;5057157;28;20559;-43
2023/05/09 00:17:44;;;;;;;19.73;13.97;;;;;;;;;;5064927;28;20412;-44
2023/05/09 00:20:11;;;;;;;19.53;15.27;;;;;;;;;;5058884;28;20428;-44
2023/05/09 00:22:39;;;;;;;17.07;13.23;;;;;;;;;;5058851;28;20857;-45
2023/05/09 00:25:06;;;;;;;19.33;14.20;;;;;;;;;;5060528;28;20432;-43
2023/05/09 00:27:32;;;;;;;20.03;14.07;;;;;;;;;;5059426;28;20414;-46
2023/05/09 00:29:58;;;;;;;15.53;13.07;;;;;;;;;;5060549;28;20441;-44
2023/05/09 00:32:25;;;;;;;19.17;14.00;;;;;;;;;;5063653;28;20392;-44
2023/05/09 00:34:50;;;;;;;20.60;14.87;;;;;;;;;;5056959;28;20920;-46
2023/05/09 00:37:18;;;;;;;14.70;11.90;;;;;;;;;;5057625;28;20408;-46
2023/05/09 00:39:44;;;;;;;18.30;13.37;;;;;;;;;;5062641;28;20396;-43
2023/05/09 00:42:10;;;;;;;15.33;12.37;;;;;;;;;;5070855;28;20429;-43
2023/05/09 00:44:36;;;;;;;14.03;11.80;;;;;;;;;;5059693;28;20950;-43
2023/05/09 00:47:02;;;;;;;15.17;12.13;;;;;;;;;;5050017;27;20533;-43
2023/05/09 00:49:28;;;;;;;15.70;11.90;;;;;;;;;;5051084;28;20412;-44
2023/05/09 00:51:55;;;;;;;18.63;12.30;;;;;;;;;;5050761;28;20398;-44
2023/05/09 00:54:21;;;;;;;18.00;13.40;;;;;;;;;;5050201;28;20594;-43
2023/05/09 00:56:47;;;;;;;21.77;14.43;;;;;;;;;;5051131;28;20431;-44
2023/05/09 00:59:13;;;;;;;16.67;12.17;;;;;;;;;;5050639;28;20416;-44
2023/05/09 01:01:39;;;;;;;17.80;13.50;;;;;;;;;;5050553;28;20471;-45
2023/05/09 01:04:05;;;;;;;20.60;14.10;;;;;;;;;;5049517;28;20421;-44
2023/05/09 01:06:55;;;;;;;17.43;13.87;;;;;;;;;;5049793;28;20432;-45
2023/05/09 01:09:28;;;;;;;17.70;12.63;;;;;;;;;;5050465;28;20402;-44
2023/05/09 01:12:03;;;;;;;19.77;15.23;;;;;;;;;;5050305;28;20401;-44
2023/05/09 01:14:35;;;;;;;20.40;13.47;;;;;;;;;;5048948;28;21150;-44
2023/05/09 01:17:05;;;;;;;17.17;12.80;;;;;;;;;;5050432;28;20758;-45
2023/05/09 01:19:53;;;;;;;17.87;14.93;;;;;;;;;;5050362;28;20924;-44
2023/05/09 01:22:21;;;;;;;20.13;13.10;;;;;;;;;;5050341;28;20413;-44
2023/05/09 01:24:52;;;;;;;18.67;13.87;;;;;;;;;;5050265;28;20870;-45
2023/05/09 01:27:28;;;;;;;20.70;13.10;;;;;;;;;;5050278;28;20460;-44
2023/05/09 01:29:57;;;;;;;19.50;13.83;;;;;;;;;;5050417;28;20405;-44
2023/05/09 01:32:30;;;;;;;21.47;14.90;;;;;;;;;;5050050;28;20488;-48
2023/05/09 01:35:00;;;;;;;19.13;13.50;;;;;;;;;;5050064;28;20432;-44
2023/05/09 01:37:30;;;;;;;17.00;13.37;;;;;;;;;;5050269;28;20409;-45
2023/05/09 01:40:00;;;;;;;16.33;13.27;;;;;;;;;;5050265;28;20880;-44
2023/05/09 01:42:28;;;;;;;20.50;15.37;;;;;;;;;;5049028;28;20851;-44
2023/05/09 01:44:55;;;;;;;24.83;16.00;;;;;;;;;;5047658;28;20593;-46
2023/05/09 01:47:22;;;;;;;18.60;14.13;;;;;;;;;;5050164;28;20409;-45
2023/05/09 01:49:49;;;;;;;20.40;14.30;;;;;;;;;;5049312;28;20433;-44
2023/05/09 01:52:16;;;;;;;19.10;14.70;;;;;;;;;;5049711;28;20917;-44
2023/05/09 01:54:42;;;;;;;21.70;14.43;;;;;;;;;;5049583;28;20457;-44
2023/05/09 01:57:10;;;;;;;17.77;14.10;;;;;;;;;;5049567;28;20467;-44
2023/05/09 01:59:38;;;;;;;20.00;13.07;;;;;;;;;;5049684;28;20398;-45
2023/05/09 02:02:04;;;;;;;20.13;14.23;;;;;;;;;;5049646;28;20401;-45
2023/05/09 02:04:31;;;;;;;18.23;14.00;;;;;;;;;;5049328;28;21031;-44
2023/05/09 02:06:58;;;;;;;21.43;13.83;;;;;;;;;;5049511;28;20402;-44
2023/05/09 02:09:24;;;;;;;23.77;15.70;;;;;;;;;;5049567;28;20446;-44
2023/05/09 02:11:50;;;;;;;18.70;14.03;;;;;;;;;;5049443;28;20408;-44
2023/05/09 02:14:17;;;;;;;19.20;14.90;;;;;;;;;;5049130;28;20825;-43
2023/05/09 02:16:43;;;;;;;18.40;14.17;;;;;;;;;;5047482;28;20425;-44
2023/05/09 02:19:09;;;;;;;19.40;14.03;;;;;;;;;;5048822;28;20477;-44
2023/05/09 02:21:35;;;;;;;19.00;15.77;;;;;;;;;;5049304;28;20801;-44
2023/05/09 02:24:01;;;;;;;25.27;15.10;;;;;;;;;;5049141;28;20396;-44
2023/05/09 02:26:28;;;;;;;20.63;15.57;;;;;;;;;;5049225;28;20408;-44
2023/05/09 02:28:55;;;;;;;23.33;16.10;;;;;;;;;;5049193;28;20454;-43
2023/05/09 02:31:23;;;;;;;20.60;15.33;;;;;;;;;;5049426;28;20377;-44
2023/05/09 02:33:50;;;;;;;20.13;14.20;;;;;;;;;;5048786;28;20839;-44
2023/05/09 02:36:16;;;;;;;21.43;15.20;;;;;;;;;;5049195;28;20476;-44
2023/05/09 02:38:43;;;;;;;22.80;15.37;;;;;;;;;;5049152;28;20433;-44
2023/05/09 02:41:13;;;;;;;24.77;16.77;;;;;;;;;;5048971;28;20743;-44
2023/05/09 02:43:39;;;;;;;20.67;15.50;;;;;;;;;;5049041;28;20758;-44
2023/05/09 02:46:05;;;;;;;24.50;16.43;;;;;;;;;;5046972;28;20419;-44
2023/05/09 02:48:31;;;;;;;23.30;16.00;;;;;;;;;;5048975;28;20394;-44
2023/05/09 02:50:57;;;;;;;19.30;15.37;;;;;;;;;;5049009;28;20773;-44
2023/05/09 02:53:23;;;;;;;25.60;17.50;;;;;;;;;;5048172;28;20391;-44
2023/05/09 02:55:49;;;;;;;25.70;15.13;;;;;;;;;;5048069;28;20778;-44
2023/05/09 02:58:15;;;;;;;24.70;17.50;;;;;;;;;;5048906;28;20379;-44
2023/05/09 03:00:42;;;;;;;22.60;16.70;;;;;;;;;;5047281;28;20442;-45
2023/05/09 03:03:08;;;;;;;25.90;16.97;;;;;;;;;;5052532;28;20496;-45
2023/05/09 03:05:34;;;;;;;23.93;16.97;;;;;;;;;;5058095;28;20410;-46
2023/05/09 03:07:59;;;;;;;23.60;17.40;;;;;;;;;;5058866;28;20383;-45
2023/05/09 03:10:25;;;;;;;24.33;17.90;;;;;;;;;;5054395;28;20498;-44
2023/05/09 03:12:51;;;;;;;23.90;16.23;;;;;;;;;;5064306;28;20431;-44
2023/05/09 03:15:17;;;;;;;24.90;17.37;;;;;;;;;;5053222;28;20900;-44
2023/05/09 03:17:43;;;;;;;25.13;17.20;;;;;;;;;;5056684;28;20424;-45
2023/05/09 03:20:10;;;;;;;23.73;17.00;;;;;;;;;;5055718;28;20532;-44
2023/05/09 03:22:36;;;;;;;25.33;17.87;;;;;;;;;;5056493;28;20743;-44
2023/05/09 03:25:02;;;;;;;24.40;17.43;;;;;;;;;;5057221;28;20990;-44
2023/05/09 03:27:28;;;;;;;26.10;17.80;;;;;;;;;;5056534;28;20389;-44
2023/05/09 03:29:54;;;;;;;25.17;16.93;;;;;;;;;;5062260;28;20416;-45
2023/05/09 03:32:20;;;;;;;23.30;17.37;;;;;;;;;;5056634;28;20435;-45
2023/05/09 03:34:46;;;;;;;23.83;17.47;;;;;;;;;;5054313;28;21070;-43
2023/05/09 03:37:12;;;;;;;22.33;16.70;;;;;;;;;;5057162;28;20776;-44
2023/05/09 03:39:38;;;;;;;30.30;17.73;;;;;;;;;;5056719;28;20466;-44
2023/05/09 03:42:04;;;;;;;27.37;19.10;;;;;;;;;;5058290;28;20417;-44
2023/05/09 03:44:30;;;;;;;23.90;16.57;;;;;;;;;;5058485;28;20477;-44
2023/05/09 03:46:56;;;;;;;19.90;15.47;;;;;;;;;;5060435;28;20907;-44
2023/05/09 03:49:22;;;;;;;21.60;17.30;;;;;;;;;;5055293;28;20781;-44
2023/05/09 03:51:48;;;;;;;26.23;17.73;;;;;;;;;;5052372;28;20883;-44
2023/05/09 03:54:14;;;;;;;25.00;17.53;;;;;;;;;;5059259;27;20443;-45
2023/05/09 03:56:39;;;;;;;25.23;17.43;;;;;;;;;;5052758;28;20695;-44
2023/05/09 03:59:05;;;;;;;24.43;16.87;;;;;;;;;;5058517;28;20401;-44
2023/05/09 04:01:31;;;;;;;23.73;18.10;;;;;;;;;;5057951;28;20418;-44
2023/05/09 04:03:57;;;;;;;20.33;16.20;;;;;;;;;;5058380;28;20436;-44
2023/05/09 04:06:23;;;;;;;22.73;17.60;;;;;;;;;;5056350;28;20420;-48
2023/05/09 04:08:49;;;;;;;23.73;18.17;;;;;;;;;;5066217;28;20427;-48
2023/05/09 04:11:15;;;;;;;27.00;19.13;;;;;;;;;;5063911;28;20464;-49
2023/05/09 04:13:41;;;;;;;25.97;18.13;;;;;;;;;;5061474;28;20437;-48
2023/05/09 04:16:07;;;;;;;25.10;18.30;;;;;;;;;;5066306;27;20428;-47
2023/05/09 04:18:33;;;;;;;23.17;16.37;;;;;;;;;;5058188;28;20412;-45
2023/05/09 04:21:00;;;;;;;27.23;19.73;;;;;;;;;;5062556;28;20428;-44
2023/05/09 04:23:26;;;;;;;26.97;18.13;;;;;;;;;;5059013;28;20481;-43
2023/05/09 04:25:52;;;;;;;27.67;19.37;;;;;;;;;;5065305;28;20416;-44
2023/05/09 04:28:18;;;;;;;26.03;18.50;;;;;;;;;;5059476;28;20920;-45
2023/05/09 04:30:44;;;;;;;30.20;18.53;;;;;;;;;;5057734;28;20409;-44
2023/05/09 04:33:10;;;;;;;30.27;19.60;;;;;;;;;;5059977;28;20396;-44
2023/05/09 04:35:37;;;;;;;27.90;20.17;;;;;;;;;;5059050;28;20507;-44
2023/05/09 04:38:03;;;;;;;29.97;17.87;;;;;;;;;;5060903;28;20405;-44
2023/05/09 04:40:29;;;;;;;32.60;19.20;;;;;;;;;;5062921;28;20425;-44
2023/05/09 04:42:58;;;;;;;22.77;18.30;;;;;;;;;;5063185;28;20416;-44
2023/05/09 04:45:24;;;;;;;25.20;17.73;;;;;;;;;;5053015;28;20445;-45
2023/05/09 04:47:50;;;;;;;27.23;18.13;;;;;;;;;;5058281;28;20438;-45
2023/05/09 04:50:16;;;;;;;24.50;19.43;;;;;;;;;;5062172;28;20769;-44
2023/05/09 04:52:42;;;;;;;29.33;19.43;;;;;;;;;;5060762;28;20404;-44
2023/05/09 04:55:09;;;;;;;26.07;17.20;;;;;;;;;;5061191;28;20476;-44
2023/05/09 04:57:35;;;;;;;25.87;19.13;;;;;;;;;;5058918;27;20511;-44
2023/05/09 05:00:00;;;;;;;27.30;20.03;;;;;;;;;;5061563;28;20444;-44
2023/05/09 05:02:26;;;;;;;26.67;17.87;;;;;;;;;;5056449;28;20418;-45
2023/05/09 05:04:52;;;;;;;29.80;19.13;;;;;;;;;;5061346;28;20438;-44
2023/05/09 05:07:18;;;;;;;23.80;16.83;;;;;;;;;;5060479;28;20499;-45
2023/05/09 05:09:44;;;;;;;25.13;18.33;;;;;;;;;;5058524;28;20393;-44
2023/05/09 05:12:10;;;;;;;24.03;16.93;;;;;;;;;;5061475;28;20379;-44
2023/05/09 05:14:36;;;;;;;26.80;17.87;;;;;;;;;;5058241;28;20452;-44
2023/05/09 05:17:02;;;;;;;24.27;17.37;;;;;;;;;;5056691;28;20506;-44
2023/05/09 05:19:28;;;;;;;26.20;17.80;;;;;;;;;;5060627;28;20893;-43
2023/05/09 05:21:54;;;;;;;25.47;17.43;;;;;;;;;;5060961;28;20421;-44
2023/05/09 05:24:20;;;;;;;26.90;18.90;;;;;;;;;;5058698;28;20440;-44
2023/05/09 05:26:46;;;;;;;28.23;18.93;;;;;;;;;;5056722;28;20386;-45
2023/05/09 05:29:12;;;;;;;28.93;17.63;;;;;;;;;;5059623;28;20415;-45
2023/05/09 05:31:38;;;;;;;27.00;19.60;;;;;;;;;;5058416;28;20692;-45
2023/05/09 05:34:04;;;;;;;26.80;18.70;;;;;;;;;;5059764;28;20473;-43
2023/05/09 05:36:31;;;;;;;23.47;17.70;;;;;;;;;;5060879;28;20414;-44
2023/05/09 05:38:57;;;;;;;25.97;19.03;;;;;;;;;;5062757;28;20419;-44
2023/05/09 05:41:23;;;;;;;25.63;18.27;;;;;;;;;;5057519;28;20414;-44
2023/05/09 05:43:49;;;;;;;26.37;19.13;;;;;;;;;;5054275;28;20513;-46
2023/05/09 05:46:14;;;;;;;24.43;18.37;;;;;;;;;;5059910;28;20557;-44
2023/05/09 05:48:40;;;;;;;24.03;17.00;;;;;;;;;;5061476;28;20918;-44
2023/05/09 05:51:06;;;;;;;24.70;17.73;;;;;;;;;;5060708;28;20411;-44
2023/05/09 05:53:32;;;;;;;26.83;19.27;;;;;;;;;;5059581;28;20415;-44
2023/05/09 05:55:58;;;;;;;29.37;18.70;;;;;;;;;;5056456;28;20380;-46
2023/05/09 05:58:25;;;;;;;25.03;18.77;;;;;;;;;;5061625;28;20393;-44
2023/05/09 06:00:51;;;;;;;26.37;17.97;;;;;;;;;;5060753;28;20730;-46
2023/05/09 06:03:17;;;;;;;25.27;17.90;;;;;;;;;;5059594;28;20492;-46
2023/05/09 06:05:44;;;;;;;27.63;17.80;;;;;;;;;;5058234;28;20851;-44
2023/05/09 06:08:10;;;;;;;27.00;18.17;;;;;;;;;;5060652;28;20392;-44
2023/05/09 06:10:35;;;;;;;20.07;14.57;;;;;;;;;;5057717;28;20422;-46
2023/05/09 06:13:01;;;;;;;25.27;18.13;;;;;;;;;;5058759;28;20892;-44
2023/05/09 06:15:27;;;;;;;25.10;17.47;;;;;;;;;;5055271;28;20993;-44
2023/05/09 06:17:53;;;;;;;24.30;16.50;;;;;;;;;;5063960;28;20405;-44
2023/05/09 06:20:19;;;;;;;25.93;17.13;;;;;;;;;;5058178;28;20432;-44
2023/05/09 06:22:45;;;;;;;20.30;15.13;;;;;;;;;;5056314;28;20506;-45
2023/05/09 06:25:11;;;;;;;22.57;16.90;;;;;;;;;;5058957;27;20409;-44
2023/05/09 06:27:37;;;;;;;23.83;17.00;;;;;;;;;;5057465;28;20892;-44
2023/05/09 06:30:04;;;;;;;24.67;18.77;;;;;;;;;;5058964;28;21044;-45
2023/05/09 06:32:30;;;;;;;24.83;17.67;;;;;;;;;;5061433;28;20457;-44
2023/05/09 06:34:56;;;;;;;21.90;15.50;;;;;;;;;;5061824;28;20937;-44
2023/05/09 06:37:21;;;;;;;21.10;15.93;;;;;;;;;;5056750;28;20387;-44
2023/05/09 06:39:49;;;;;;;22.07;15.80;;;;;;;;;;5054094;28;20417;-45
2023/05/09 06:42:15;;;;;;;27.20;16.60;;;;;;;;;;5052551;28;20459;-44
2023/05/09 06:44:42;;;;;;;22.00;17.20;;;;;;;;;;5057501;28;20428;-44
2023/05/09 06:47:08;;;;;;;19.87;14.77;;;;;;;;;;5059766;28;20381;-44
2023/05/09 06:49:34;;;;;;;23.63;16.17;;;;;;;;;;5059070;28;20455;-44
2023/05/09 06:52:00;;;;;;;19.47;14.93;;;;;;;;;;5060211;28;20427;-44
2023/05/09 06:54:26;;;;;;;17.50;15.00;;;;;;;;;;5053911;28;20464;-44
2023/05/09 06:56:52;;;;;;;20.67;15.20;;;;;;;;;;5046167;28;20444;-45
2023/05/09 06:59:18;;;;;;;17.97;14.40;;;;;;;;;;5060217;28;20404;-47
2023/05/09 07:01:44;;;;;;;21.73;14.60;;;;;;;;;;5058655;28;20433;-46
2023/05/09 07:04:10;;;;;;;18.13;14.53;;;;;;;;;;5061256;28;20464;-48
2023/05/09 07:06:36;;;;;;;17.63;13.90;;;;;;;;;;5059734;28;20427;-47
2023/05/09 07:09:03;;;;;;;19.00;14.30;;;;;;;;;;5059781;28;20408;-48
2023/05/09 07:11:33;;;;;;;18.67;14.30;;;;;;;;;;5056296;28;20903;-48
2023/05/09 07:13:59;;;;;;;17.93;13.97;;;;;;;;;;5059958;28;20460;-48
2023/05/09 07:16:28;;;;;;;17.13;14.00;;;;;;;;;;5060037;28;20392;-48
2023/05/09 07:18:54;;;;;;;20.43;14.07;;;;;;;;;;5056938;28;20410;-48
2023/05/09 07:21:20;;;;;;;17.60;14.07;;;;;;;;;;5059493;28;20402;-45
2023/05/09 07:23:45;;;;;;;17.73;14.80;;;;;;;;;;5058063;28;20426;-49
2023/05/09 07:26:11;;;;;;;21.47;13.50;;;;;;;;;;5058432;28;20983;-48
2023/05/09 07:28:38;;;;;;;19.33;14.73;;;;;;;;;;5058645;28;20909;-48
2023/05/09 07:31:04;;;;;;;20.50;15.00;;;;;;;;;;5063941;28;20417;-47
2023/05/09 07:33:30;;;;;;;20.47;14.73;;;;;;;;;;5058795;28;20430;-48
2023/05/09 07:35:58;;;;;;;23.07;15.60;;;;;;;;;;5052044;28;20514;-48
2023/05/09 07:38:24;;;;;;;19.03;12.87;;;;;;;;;;5050676;27;20945;-47
2023/05/09 07:40:50;;;;;;;15.67;13.20;;;;;;;;;;5059009;28;20389;-47
2023/05/09 07:43:16;;;;;;;20.90;14.10;;;;;;;;;;5064410;28;20410;-45
2023/05/09 07:45:41;;;;;;;16.60;13.47;;;;;;;;;;5072957;28;20732;-49
2023/05/09 07:48:08;;;;;;;21.37;14.00;;;;;;;;;;5072550;28;20401;-47
2023/05/09 07:50:34;;;;;;;19.60;10.57;;;;;;;;;;5072255;28;20767;-49
2023/05/09 07:53:00;;;;;;;15.47;11.60;;;;;;;;;;5073358;28;20774;-48
2023/05/09 07:55:26;;;;;;;14.97;11.60;;;;;;;;;;5073874;28;20451;-48
2023/05/09 07:57:52;;;;;;;13.33;11.00;;;;;;;;;;5073361;28;20405;-47
2023/05/09 08:00:22;;;;;;;16.90;11.17;;;;;;;;;;5073488;28;20797;-48
2023/05/09 08:02:48;;;;;;;15.13;11.93;;;;;;;;;;5072775;28;20960;-46
2023/05/09 08:05:14;;;;;;;15.63;12.67;;;;;;;;;;5073080;28;20434;-48
2023/05/09 08:07:40;;;;;;;18.93;14.50;;;;;;;;;;5059219;28;20429;-47
2023/05/09 08:10:06;;;;;;;13.90;11.27;;;;;;;;;;5052761;28;20413;-47
2023/05/09 08:12:32;;;;;;;15.87;12.43;;;;;;;;;;5052407;28;20408;-45
2023/05/09 08:14:58;;;;;;;13.30;10.33;;;;;;;;;;5052772;28;20760;-49
2023/05/09 08:17:24;;;;;;;16.07;12.07;;;;;;;;;;5051474;28;20459;-49
2023/05/09 08:19:50;;;;;;;13.50;10.43;;;;;;;;;;5059332;28;20556;-48
2023/05/09 08:22:17;;;;;;;16.70;9.50;;;;;;;;;;5064505;28;20404;-48
2023/05/09 08:24:44;;;;;;;14.63;10.83;;;;;;;;;;5061430;28;20475;-48
2023/05/09 08:27:12;;;;;;;13.67;11.57;;;;;;;;;;5063896;28;20421;-48
2023/05/09 08:29:38;;;;;;;13.70;11.37;;;;;;;;;;5067890;28;20436;-47
2023/05/09 08:32:04;;;;;;;12.80;10.60;;;;;;;;;;5059908;28;20430;-47
2023/05/09 08:34:33;;;;;;;16.97;12.33;;;;;;;;;;5052085;28;20853;-47
2023/05/09 08:36:59;;;;;;;14.13;10.67;;;;;;;;;;5052745;28;20400;-48
2023/05/09 08:39:25;;;;;;;10.60;9.50;;;;;;;;;;5052896;28;20407;-47
2023/05/09 08:41:52;;;;;;;12.50;9.97;;;;;;;;;;5052422;28;20418;-47
2023/05/09 08:44:21;;;;;;;12.03;10.07;;;;;;;;;;5052455;28;20544;-47
2023/05/09 08:46:48;;;;;;;12.03;10.03;;;;;;;;;;5053168;28;20913;-46
2023/05/09 08:49:14;;;;;;;10.70;9.00;;;;;;;;;;5053350;28;20409;-48
2023/05/09 08:51:40;;;;;;;14.90;9.73;;;;;;;;;;5052848;28;20884;-46
2023/05/09 08:54:06;;;;;;;10.53;8.60;;;;;;;;;;5053039;28;20543;-46
2023/05/09 08:56:34;;;;;;;11.03;8.90;;;;;;;;;;5053100;28;20394;-48
2023/05/09 08:59:00;;;;;;;8.53;7.63;;;;;;;;;;5053574;28;20405;-48
2023/05/09 09:01:27;;;;;;;10.47;8.77;;;;;;;;;;5050667;28;20764;-48
2023/05/09 09:03:53;;;;;;;7.90;6.90;;;;;;;;;;5051425;28;20502;-46
2023/05/09 09:06:20;;;;;;;9.37;7.73;;;;;;;;;;5051459;28;20397;-46
2023/05/09 09:08:47;;;;;;;7.33;6.17;;;;;;;;;;5051149;28;20407;-47
2023/05/09 09:11:14;;;;;;;7.70;6.10;;;;;;;;;;5051683;28;20408;-48
2023/05/09 09:13:40;;;;;;;8.43;7.60;;;;;;;;;;5050933;28;20780;-47
2023/05/09 09:16:14;;;;;;;10.13;7.47;;;;;;;;;;5049256;28;20406;-47
2023/05/09 09:18:40;;;;;;;7.93;6.53;;;;;;;;;;5042736;28;20419;-48
2023/05/09 09:21:09;;;;;;;8.17;7.10;;;;;;;;;;5051336;28;20421;-47
2023/05/09 09:23:36;;;;;;;9.97;8.40;;;;;;;;;;5051591;28;20509;-47
2023/05/09 09:26:05;;;;;;;8.90;7.17;;;;;;;;;;5052078;28;20402;-47
2023/05/09 09:28:32;;;;;;;12.87;7.77;;;;;;;;;;5051164;28;20398;-47
2023/05/09 09:30:58;;;;;;;11.23;8.87;;;;;;;;;;5047386;28;20429;-48
2023/05/09 09:33:25;;;;;;;7.40;6.00;;;;;;;;;;5049884;28;20956;-47
2023/05/09 09:35:52;;;;;;;8.10;7.03;;;;;;;;;;5051980;28;20491;-48
2023/05/09 09:38:18;;;;;;;6.40;4.83;;;;;;;;;;5052447;28;20416;-48
2023/05/09 09:40:54;;;;;;;8.90;5.67;;;;;;;;;;5053627;28;20420;-47
2023/05/09 09:43:26;;;;;;;135.43;18.53;;;;;;;;;;5053930;28;20432;-47
2023/05/09 09:45:53;;;;;;;8.53;6.53;;;;;;;;;;5053136;28;20436;-48
2023/05/09 09:48:23;;;;;;;26.53;8.20;;;;;;;;;;5053326;28;20454;-47
2023/05/09 09:50:49;;;;;;;6.70;6.07;;;;;;;;;;5053205;28;20405;-47
2023/05/09 09:53:15;;;;;;;7.17;5.67;;;;;;;;;;5052970;28;20964;-49
2023/05/09 09:55:49;;;;;;;6.57;5.87;;;;;;;;;;5052928;28;20460;-48
2023/05/09 09:58:20;;;;;;;7.07;6.40;;;;;;;;;;5052895;28;20393;-48
2023/05/09 10:00:46;;;;;;;8.63;5.80;;;;;;;;;;5053163;28;20405;-47
2023/05/09 10:03:16;;;;;;;15.13;6.87;;;;;;;;;;5050082;28;20436;-46
2023/05/09 10:05:42;;;;;;;30.87;9.60;;;;;;;;;;5052266;28;20429;-48
2023/05/09 10:08:08;;;;;;;124.00;15.33;;;;;;;;;;5052780;28;20406;-49
2023/05/09 10:10:35;;;;;;;6.40;5.60;;;;;;;;;;5053186;28;20772;-49
2023/05/09 10:13:08;;;;;;;9.23;5.70;;;;;;;;;;5052618;28;20405;-48
2023/05/09 10:15:35;;;;;;;84.50;16.53;;;;;;;;;;5052713;28;20540;-47
2023/05/09 10:18:03;;;;;;;5.50;4.93;;;;;;;;;;5052367;28;20465;-48
2023/05/09 10:20:29;;;;;;;15.00;5.40;;;;;;;;;;5052326;28;20429;-49
2023/05/09 10:22:56;;;;;;;6.00;5.07;;;;;;;;;;5052058;28;20446;-49
2023/05/09 10:25:27;;;;;;;8.80;5.20;;;;;;;;;;5052106;28;20429;-48
2023/05/09 10:27:54;;;;;;;13.30;4.80;;;;;;;;;;5051456;28;20413;-49
2023/05/09 10:30:27;;;;;;;30.37;6.57;;;;;;;;;;5050801;28;20885;-48
2023/05/09 10:32:57;;;;;;;148.00;12.73;;;;;;;;;;5049510;28;20489;-46
2023/05/09 10:35:28;;;;;;;13.53;4.77;;;;;;;;;;5049605;28;20465;-49
2023/05/09 10:37:58;;;;;;;4.90;4.40;;;;;;;;;;5050351;28;20859;-47
2023/05/09 10:40:25;;;;;;;5.63;5.03;;;;;;;;;;5050276;28;20409;-49
2023/05/09 10:42:51;;;;;;;8.03;4.53;;;;;;;;;;5049807;28;20401;-49
2023/05/09 10:45:17;;;;;;;4.70;3.70;;;;;;;;;;5048437;28;20433;-49
2023/05/09 10:47:43;;;;;;;16.73;4.53;;;;;;;;;;5049884;28;20494;-49
2023/05/09 10:50:14;;;;;;;4.80;4.10;;;;;;;;;;5048671;28;20756;-49
2023/05/09 10:52:58;;;;;;;7.17;4.63;;;;;;;;;;5049601;28;20479;-49
2023/05/09 10:55:35;;;;;;;4.83;4.33;;;;;;;;;;5049550;28;20460;-48
2023/05/09 10:58:07;;;;;;;4.17;3.63;;;;;;;;;;5049689;28;20401;-49
2023/05/09 11:00:33;;;;;;;3.60;3.27;;;;;;;;;;5049856;28;20394;-49
2023/05/09 11:03:06;;;;;;;8.20;4.37;;;;;;;;;;5049457;28;20433;-48
2023/05/09 11:05:37;;;;;;;3.60;3.30;;;;;;;;;;5050677;28;20409;-48
2023/05/09 11:08:19;;;;;;;6.60;3.80;;;;;;;;;;5049233;28;20436;-47
2023/05/09 11:10:45;;;;;;;706.60;100.40;;;;;;;;;;5049060;28;20414;-46
2023/05/09 11:13:12;;;;;;;10.60;4.90;;;;;;;;;;5048703;28;20799;-49
2023/05/09 11:15:50;;;;;;;15.67;5.30;;;;;;;;;;5050292;28;20509;-49
2023/05/09 11:18:17;;;;;;;48.80;9.50;;;;;;;;;;5052452;28;20401;-49
2023/05/09 11:20:44;;;;;;;5.70;4.10;;;;;;;;;;5054830;28;20421;-49
2023/05/09 11:23:16;;;;;;;4.37;3.97;;;;;;;;;;5053018;28;20790;-47
2023/05/09 11:25:42;;;;;;;4.33;3.90;;;;;;;;;;5054700;28;20473;-46
2023/05/09 11:28:08;;;;;;;13.33;4.53;;;;;;;;;;5054723;28;20402;-49
2023/05/09 11:30:41;;;;;;;18.80;4.60;;;;;;;;;;5052897;28;20426;-49
2023/05/09 11:33:21;;;;;;;21.20;5.60;;;;;;;;;;5054490;27;20558;-48
2023/05/09 11:35:47;;;;;;;348.33;22.97;;;;;;;;;;5054400;28;20509;-48
2023/05/09 11:38:20;;;;;;;4.40;3.10;;;;;;;;;;5055147;28;20401;-48
2023/05/09 11:40:46;;;;;;;3.87;3.17;;;;;;;;;;5054182;28;20803;-48
2023/05/09 11:43:13;;;;;;;4.70;4.23;;;;;;;;;;5053326;28;20496;-49
2023/05/09 11:45:40;;;;;;;6.47;4.27;;;;;;;;;;5054933;28;20397;-48
2023/05/09 11:48:09;;;;;;;5.80;2.90;;;;;;;;;;5044312;28;20456;-47
2023/05/09 11:50:35;;;;;;;6.50;3.43;;;;;;;;;;5051610;28;20421;-49
2023/05/09 11:53:01;;;;;;;133.90;20.10;;;;;;;;;;5053276;28;20401;-50
2023/05/09 11:55:31;;;;;;;4.83;3.67;;;;;;;;;;5055257;28;20463;-48
2023/05/09 11:57:58;;;;;;;4.53;3.30;;;;;;;;;;5055168;28;20758;-48
2023/05/09 12:00:25;;;;;;;5.00;4.50;;;;;;;;;;5054260;28;20911;-47
2023/05/09 12:02:51;;;;;;;4.23;3.83;;;;;;;;;;5053327;28;20436;-49
2023/05/09 12:05:19;;;;;;;12.63;4.60;;;;;;;;;;5053743;27;20441;-48
2023/05/09 12:07:45;;;;;;;7.57;4.53;;;;;;;;;;5054836;28;20402;-49
2023/05/09 12:10:13;;;;;;;6.00;3.70;;;;;;;;;;5055396;28;20412;-48
2023/05/09 12:12:43;;;;;;;7.00;5.07;;;;;;;;;;5054738;28;20418;-47
2023/05/09 12:15:09;;;;;;;4.83;3.23;;;;;;;;;;5053212;28;20517;-47
2023/05/09 12:17:35;;;;;;;4.67;3.83;;;;;;;;;;5054930;28;20405;-49
2023/05/09 12:20:03;;;;;;;6.07;3.87;;;;;;;;;;5053924;28;20425;-48
2023/05/09 12:22:29;;;;;;;6.07;4.20;;;;;;;;;;5055017;28;20415;-48
2023/05/09 12:24:55;;;;;;;6.80;4.40;;;;;;;;;;5054449;28;20433;-46
2023/05/09 12:27:22;;;;;;;10.17;4.20;;;;;;;;;;5054838;28;20397;-48
2023/05/09 12:29:48;;;;;;;3.83;3.50;;;;;;;;;;5055013;28;20415;-48
2023/05/09 12:32:17;;;;;;;4.93;3.90;;;;;;;;;;5054822;28;20401;-47
2023/05/09 12:34:50;;;;;;;72.50;13.00;;;;;;;;;;5053566;28;20494;-48
2023/05/09 12:37:20;;;;;;;24.77;7.50;;;;;;;;;;5054354;28;20417;-46
2023/05/09 12:40:05;;;;;;;78.30;11.43;;;;;;;;;;5055115;28;20405;-49
2023/05/09 12:42:31;;;;;;;16.23;6.60;;;;;;;;;;5054700;28;20386;-46
2023/05/09 12:44:57;;;;;;;25.23;6.60;;;;;;;;;;5054934;28;20421;-47
2023/05/09 12:47:28;;;;;;;4.10;3.77;;;;;;;;;;5054592;28;20401;-48
2023/05/09 12:49:57;;;;;;;4.07;3.67;;;;;;;;;;5054962;28;20497;-48
2023/05/09 12:52:22;;;;;;;4.87;4.40;;;;;;;;;;5054239;28;20443;-47
2023/05/09 12:54:48;;;;;;;6.90;4.67;;;;;;;;;;5053833;28;20457;-47
2023/05/09 12:57:22;;;;;;;6.20;4.77;;;;;;;;;;5053313;28;20406;-48
2023/05/09 12:59:48;;;;;;;6.83;4.70;;;;;;;;;;5052678;28;20409;-44
2023/05/09 13:02:14;;;;;;;6.80;4.43;;;;;;;;;;5050677;28;20405;-44
2023/05/09 13:04:40;;;;;;;5.77;4.70;;;;;;;;;;5050132;27;20460;-44
2023/05/09 13:07:09;;;;;;;7.33;4.50;;;;;;;;;;5050519;28;20794;-45
2023/05/09 13:09:35;;;;;;;4.17;3.80;;;;;;;;;;5050636;28;20437;-46
2023/05/09 13:12:02;;;;;;;6.50;5.00;;;;;;;;;;5050465;28;20408;-46
2023/05/09 13:14:28;;;;;;;5.10;4.23;;;;;;;;;;5050379;28;20869;-45
2023/05/09 13:16:54;;;;;;;5.30;4.77;;;;;;;;;;5050412;28;20409;-44
2023/05/09 13:19:20;;;;;;;6.13;4.20;;;;;;;;;;5050600;28;20430;-44
2023/05/09 13:21:47;;;;;;;5.27;4.40;;;;;;;;;;5050429;28;20854;-44
2023/05/09 13:24:13;;;;;;;6.73;4.07;;;;;;;;;;5049953;28;20435;-46
2023/05/09 13:26:39;;;;;;;5.03;4.47;;;;;;;;;;5050193;28;20401;-45
2023/05/09 13:29:05;;;;;;;6.53;4.30;;;;;;;;;;5050291;28;20409;-45
2023/05/09 13:31:31;;;;;;;4.70;4.17;;;;;;;;;;5050213;28;20463;-46
2023/05/09 13:33:57;;;;;;;7.00;4.40;;;;;;;;;;5049733;28;20425;-46
2023/05/09 13:36:23;;;;;;;4.20;3.80;;;;;;;;;;5048738;28;20429;-45
2023/05/09 13:38:49;;;;;;;4.50;4.10;;;;;;;;;;5048289;28;20432;-46
2023/05/09 13:41:19;;;;;;;10.50;4.73;;;;;;;;;;5050301;28;20768;-45
2023/05/09 13:43:45;;;;;;;5.60;4.30;;;;;;;;;;5048864;28;20433;-44
2023/05/09 13:46:11;;;;;;;7.20;4.90;;;;;;;;;;5049988;28;20468;-45
2023/05/09 13:48:37;;;;;;;4.93;4.43;;;;;;;;;;5049897;28;20947;-45
2023/05/09 13:51:05;;;;;;;4.13;3.73;;;;;;;;;;5049964;28;20746;-45
2023/05/09 13:53:31;;;;;;;8.63;4.50;;;;;;;;;;5049476;28;20424;-47
2023/05/09 13:55:57;;;;;;;6.03;3.90;;;;;;;;;;5049721;28;20456;-45
2023/05/09 13:58:23;;;;;;;5.30;4.33;;;;;;;;;;5049830;28;20590;-45
2023/05/09 14:00:49;;;;;;;5.50;4.50;;;;;;;;;;5049784;28;20407;-45
2023/05/09 14:03:15;;;;;;;6.83;4.73;;;;;;;;;;5049503;28;20891;-45
2023/05/09 14:05:41;;;;;;;4.87;4.47;;;;;;;;;;5047519;28;20433;-45
2023/05/09 14:08:07;;;;;;;5.17;4.07;;;;;;;;;;5049194;27;20986;-45
2023/05/09 14:10:33;;;;;;;7.17;4.93;;;;;;;;;;5049519;28;20407;-45
2023/05/09 14:12:59;;;;;;;9.40;4.80;;;;;;;;;;5049425;28;20837;-46
2023/05/09 14:15:25;;;;;;;4.90;4.23;;;;;;;;;;5049658;28;20503;-45
2023/05/09 14:17:51;;;;;;;3.90;3.50;;;;;;;;;;5049414;28;20409;-45
2023/05/09 14:20:17;;;;;;;5.13;4.27;;;;;;;;;;5049289;28;20460;-46
2023/05/09 14:22:43;;;;;;;5.00;4.60;;;;;;;;;;5043263;28;20414;-46
2023/05/09 14:25:09;;;;;;;4.40;4.00;;;;;;;;;;5029530;28;20426;-47